sensor_id;sensor_type;location;lat;lon;timestamp;P1;durP1;ratioP1;P2;durP2;ratioP2
13147;SDS011;6639;50.956;4.242;2023-03-03T00:01:15;16.57;;;14.07;;
13147;SDS011;6639;50.956;4.242;2023-03-03T00:03:43;20.20;;;14.07;;
13147;SDS011;6639;50.956;4.242;2023-03-03T00:06:10;18.00;;;13.75;;
13147;SDS011;6639;50.956;4.242;2023-03-03T00:08:38;18.77;;;14.30;;
13147;SDS011;6639;50.956;4.242;2023-03-03T00:11:06;16.43;;;13.47;;
13147;SDS011;6639;50.956;4.242;2023-03-03T00:13:37;16.48;;;13.35;;
13147;SDS011;6639;50.956;4.242;2023-03-03T00:16:16;19.98;;;14.70;;
13147;SDS011;6639;50.956;4.242;2023-03-03T00:18:49;20.53;;;14.03;;
13147;SDS011;6639;50.956;4.242;2023-03-03T00:21:25;16.47;;;14.13;;
13147;SDS011;6639;50.956;4.242;2023-03-03T00:23:54;20.50;;;15.00;;
13147;SDS011;6639;50.956;4.242;2023-03-03T00:26:36;18.97;;;14.97;;
13147;SDS011;6639;50.956;4.242;2023-03-03T00:29:17;21.50;;;14.67;;
13147;SDS011;6639;50.956;4.242;2023-03-03T00:31:54;18.07;;;14.50;;
13147;SDS011;6639;50.956;4.242;2023-03-03T00:34:26;24.60;;;14.93;;
13147;SDS011;6639;50.956;4.242;2023-03-03T00:36:55;18.60;;;14.10;;
13147;SDS011;6639;50.956;4.242;2023-03-03T00:39:26;22.10;;;15.50;;
13147;SDS011;6639;50.956;4.242;2023-03-03T00:41:56;20.13;;;15.47;;
13147;SDS011;6639;50.956;4.242;2023-03-03T00:47:24;20.35;;;15.63;;
13147;SDS011;6639;50.956;4.242;2023-03-03T00:49:53;21.50;;;16.07;;
13147;SDS011;6639;50.956;4.242;2023-03-03T00:52:22;20.03;;;15.43;;
13147;SDS011;6639;50.956;4.242;2023-03-03T00:54:52;20.20;;;16.10;;
13147;SDS011;6639;50.956;4.242;2023-03-03T00:57:19;22.23;;;16.73;;
13147;SDS011;6639;50.956;4.242;2023-03-03T00:59:46;23.80;;;16.57;;
13147;SDS011;6639;50.956;4.242;2023-03-03T01:02:13;21.97;;;17.20;;
13147;SDS011;6639;50.956;4.242;2023-03-03T01:04:42;23.00;;;16.43;;
13147;SDS011;6639;50.956;4.242;2023-03-03T01:07:16;20.27;;;16.03;;
13147;SDS011;6639;50.956;4.242;2023-03-03T01:09:43;25.53;;;18.43;;
13147;SDS011;6639;50.956;4.242;2023-03-03T01:12:10;23.02;;;17.02;;
13147;SDS011;6639;50.956;4.242;2023-03-03T01:14:38;20.27;;;16.17;;
13147;SDS011;6639;50.956;4.242;2023-03-03T01:17:09;21.00;;;16.07;;
13147;SDS011;6639;50.956;4.242;2023-03-03T01:19:36;18.85;;;16.08;;
13147;SDS011;6639;50.956;4.242;2023-03-03T01:22:04;22.88;;;16.73;;
13147;SDS011;6639;50.956;4.242;2023-03-03T01:24:31;21.60;;;16.33;;
13147;SDS011;6639;50.956;4.242;2023-03-03T01:26:58;25.77;;;16.77;;
13147;SDS011;6639;50.956;4.242;2023-03-03T01:29:26;20.40;;;14.68;;
13147;SDS011;6639;50.956;4.242;2023-03-03T01:31:53;19.95;;;15.90;;
13147;SDS011;6639;50.956;4.242;2023-03-03T01:34:20;22.13;;;16.90;;
13147;SDS011;6639;50.956;4.242;2023-03-03T01:36:47;20.57;;;15.57;;
13147;SDS011;6639;50.956;4.242;2023-03-03T01:39:16;23.08;;;16.73;;
13147;SDS011;6639;50.956;4.242;2023-03-03T01:41:42;22.17;;;16.80;;
13147;SDS011;6639;50.956;4.242;2023-03-03T01:44:10;23.97;;;17.80;;
13147;SDS011;6639;50.956;4.242;2023-03-03T01:46:43;24.77;;;17.97;;
13147;SDS011;6639;50.956;4.242;2023-03-03T01:49:15;24.17;;;17.17;;
13147;SDS011;6639;50.956;4.242;2023-03-03T01:51:47;24.00;;;15.75;;
13147;SDS011;6639;50.956;4.242;2023-03-03T01:54:21;22.60;;;16.73;;
13147;SDS011;6639;50.956;4.242;2023-03-03T01:56:51;23.07;;;17.47;;
13147;SDS011;6639;50.956;4.242;2023-03-03T01:59:22;22.40;;;17.13;;
13147;SDS011;6639;50.956;4.242;2023-03-03T02:01:52;20.93;;;16.50;;
13147;SDS011;6639;50.956;4.242;2023-03-03T02:04:20;24.70;;;17.70;;
13147;SDS011;6639;50.956;4.242;2023-03-03T02:06:50;22.30;;;15.97;;
13147;SDS011;6639;50.956;4.242;2023-03-03T02:09:25;18.50;;;14.87;;
13147;SDS011;6639;50.956;4.242;2023-03-03T02:11:59;20.87;;;15.33;;
13147;SDS011;6639;50.956;4.242;2023-03-03T02:14:29;21.47;;;15.90;;
13147;SDS011;6639;50.956;4.242;2023-03-03T02:16:56;23.40;;;15.83;;
13147;SDS011;6639;50.956;4.242;2023-03-03T02:19:24;21.00;;;16.80;;
13147;SDS011;6639;50.956;4.242;2023-03-03T02:21:58;20.90;;;16.27;;
13147;SDS011;6639;50.956;4.242;2023-03-03T02:24:28;21.10;;;15.23;;
13147;SDS011;6639;50.956;4.242;2023-03-03T02:27:01;19.53;;;15.13;;
13147;SDS011;6639;50.956;4.242;2023-03-03T02:29:29;21.90;;;15.37;;
13147;SDS011;6639;50.956;4.242;2023-03-03T02:31:55;20.47;;;15.47;;
13147;SDS011;6639;50.956;4.242;2023-03-03T02:34:23;20.97;;;16.17;;
13147;SDS011;6639;50.956;4.242;2023-03-03T02:36:50;22.37;;;15.87;;
13147;SDS011;6639;50.956;4.242;2023-03-03T02:39:18;19.73;;;15.17;;
13147;SDS011;6639;50.956;4.242;2023-03-03T02:41:47;19.53;;;15.93;;
13147;SDS011;6639;50.956;4.242;2023-03-03T02:44:21;20.13;;;15.60;;
13147;SDS011;6639;50.956;4.242;2023-03-03T02:46:49;20.13;;;15.07;;
13147;SDS011;6639;50.956;4.242;2023-03-03T02:49:18;19.33;;;15.03;;
13147;SDS011;6639;50.956;4.242;2023-03-03T02:51:46;19.53;;;15.87;;
13147;SDS011;6639;50.956;4.242;2023-03-03T02:54:15;20.60;;;15.80;;
13147;SDS011;6639;50.956;4.242;2023-03-03T02:56:43;20.23;;;15.47;;
13147;SDS011;6639;50.956;4.242;2023-03-03T02:59:11;21.30;;;14.93;;
13147;SDS011;6639;50.956;4.242;2023-03-03T03:01:39;21.90;;;16.57;;
13147;SDS011;6639;50.956;4.242;2023-03-03T03:04:07;22.00;;;15.90;;
13147;SDS011;6639;50.956;4.242;2023-03-03T03:06:36;22.67;;;15.43;;
13147;SDS011;6639;50.956;4.242;2023-03-03T03:09:04;18.87;;;15.13;;
13147;SDS011;6639;50.956;4.242;2023-03-03T03:11:33;23.20;;;15.77;;
13147;SDS011;6639;50.956;4.242;2023-03-03T03:14:00;19.87;;;15.27;;
13147;SDS011;6639;50.956;4.242;2023-03-03T03:16:27;20.60;;;15.27;;
13147;SDS011;6639;50.956;4.242;2023-03-03T03:18:57;22.27;;;15.67;;
13147;SDS011;6639;50.956;4.242;2023-03-03T03:21:24;21.33;;;15.17;;
13147;SDS011;6639;50.956;4.242;2023-03-03T03:23:51;20.13;;;14.40;;
13147;SDS011;6639;50.956;4.242;2023-03-03T03:26:18;19.73;;;15.20;;
13147;SDS011;6639;50.956;4.242;2023-03-03T03:28:46;20.47;;;15.10;;
13147;SDS011;6639;50.956;4.242;2023-03-03T03:31:13;24.23;;;17.30;;
13147;SDS011;6639;50.956;4.242;2023-03-03T03:33:40;20.93;;;15.67;;
13147;SDS011;6639;50.956;4.242;2023-03-03T03:36:09;19.37;;;15.17;;
13147;SDS011;6639;50.956;4.242;2023-03-03T03:38:37;24.43;;;16.33;;
13147;SDS011;6639;50.956;4.242;2023-03-03T03:41:04;19.57;;;14.60;;
13147;SDS011;6639;50.956;4.242;2023-03-03T03:43:33;21.10;;;15.37;;
13147;SDS011;6639;50.956;4.242;2023-03-03T03:46:00;18.30;;;13.40;;
13147;SDS011;6639;50.956;4.242;2023-03-03T03:48:27;14.63;;;11.50;;
13147;SDS011;6639;50.956;4.242;2023-03-03T03:50:54;14.97;;;11.67;;
13147;SDS011;6639;50.956;4.242;2023-03-03T03:53:22;18.20;;;13.63;;
13147;SDS011;6639;50.956;4.242;2023-03-03T03:55:49;18.20;;;13.87;;
13147;SDS011;6639;50.956;4.242;2023-03-03T03:58:16;18.43;;;13.80;;
13147;SDS011;6639;50.956;4.242;2023-03-03T04:00:46;18.17;;;14.37;;
13147;SDS011;6639;50.956;4.242;2023-03-03T04:03:13;20.07;;;14.47;;
13147;SDS011;6639;50.956;4.242;2023-03-03T04:05:40;20.53;;;14.77;;
13147;SDS011;6639;50.956;4.242;2023-03-03T04:08:08;18.03;;;13.53;;
13147;SDS011;6639;50.956;4.242;2023-03-03T04:10:36;18.97;;;13.07;;
13147;SDS011;6639;50.956;4.242;2023-03-03T04:13:03;16.60;;;13.23;;
13147;SDS011;6639;50.956;4.242;2023-03-03T04:15:30;20.03;;;15.03;;
13147;SDS011;6639;50.956;4.242;2023-03-03T04:17:57;16.97;;;13.87;;
13147;SDS011;6639;50.956;4.242;2023-03-03T04:20:24;21.57;;;15.40;;
13147;SDS011;6639;50.956;4.242;2023-03-03T04:22:51;19.03;;;15.50;;
13147;SDS011;6639;50.956;4.242;2023-03-03T04:25:19;20.80;;;15.20;;
13147;SDS011;6639;50.956;4.242;2023-03-03T04:27:47;20.17;;;15.43;;
13147;SDS011;6639;50.956;4.242;2023-03-03T04:30:17;24.20;;;17.43;;
13147;SDS011;6639;50.956;4.242;2023-03-03T04:32:44;26.20;;;18.47;;
13147;SDS011;6639;50.956;4.242;2023-03-03T04:35:11;26.63;;;19.43;;
13147;SDS011;6639;50.956;4.242;2023-03-03T04:37:38;25.83;;;18.73;;
13147;SDS011;6639;50.956;4.242;2023-03-03T04:40:06;27.50;;;19.73;;
13147;SDS011;6639;50.956;4.242;2023-03-03T04:42:34;26.13;;;19.97;;
13147;SDS011;6639;50.956;4.242;2023-03-03T04:45:03;30.87;;;20.80;;
13147;SDS011;6639;50.956;4.242;2023-03-03T04:47:30;27.33;;;19.97;;
13147;SDS011;6639;50.956;4.242;2023-03-03T04:49:58;28.20;;;21.23;;
13147;SDS011;6639;50.956;4.242;2023-03-03T04:52:25;28.17;;;20.10;;
13147;SDS011;6639;50.956;4.242;2023-03-03T04:54:52;31.47;;;21.03;;
13147;SDS011;6639;50.956;4.242;2023-03-03T04:57:19;31.17;;;22.13;;
13147;SDS011;6639;50.956;4.242;2023-03-03T04:59:46;43.47;;;27.13;;
13147;SDS011;6639;50.956;4.242;2023-03-03T05:02:15;44.03;;;28.70;;
13147;SDS011;6639;50.956;4.242;2023-03-03T05:04:42;39.47;;;26.50;;
13147;SDS011;6639;50.956;4.242;2023-03-03T05:07:09;35.77;;;25.03;;
13147;SDS011;6639;50.956;4.242;2023-03-03T05:09:36;32.50;;;22.90;;
13147;SDS011;6639;50.956;4.242;2023-03-03T05:12:03;34.80;;;23.03;;
13147;SDS011;6639;50.956;4.242;2023-03-03T05:14:31;36.57;;;23.17;;
13147;SDS011;6639;50.956;4.242;2023-03-03T05:16:58;36.87;;;22.93;;
13147;SDS011;6639;50.956;4.242;2023-03-03T05:19:26;36.00;;;24.10;;
13147;SDS011;6639;50.956;4.242;2023-03-03T05:21:53;40.10;;;24.50;;
13147;SDS011;6639;50.956;4.242;2023-03-03T05:24:21;35.43;;;25.13;;
13147;SDS011;6639;50.956;4.242;2023-03-03T05:26:48;40.03;;;25.57;;
13147;SDS011;6639;50.956;4.242;2023-03-03T05:29:15;37.73;;;25.17;;
13147;SDS011;6639;50.956;4.242;2023-03-03T05:31:42;36.50;;;24.60;;
13147;SDS011;6639;50.956;4.242;2023-03-03T05:34:10;40.43;;;25.43;;
13147;SDS011;6639;50.956;4.242;2023-03-03T05:36:39;39.63;;;23.97;;
13147;SDS011;6639;50.956;4.242;2023-03-03T05:39:06;34.70;;;23.90;;
13147;SDS011;6639;50.956;4.242;2023-03-03T05:41:33;30.57;;;22.30;;
13147;SDS011;6639;50.956;4.242;2023-03-03T05:44:01;33.43;;;22.83;;
13147;SDS011;6639;50.956;4.242;2023-03-03T05:46:28;30.13;;;22.40;;
13147;SDS011;6639;50.956;4.242;2023-03-03T05:48:55;33.83;;;22.00;;
13147;SDS011;6639;50.956;4.242;2023-03-03T05:51:22;33.27;;;20.83;;
13147;SDS011;6639;50.956;4.242;2023-03-03T05:53:50;35.10;;;22.17;;
13147;SDS011;6639;50.956;4.242;2023-03-03T05:56:17;33.27;;;22.23;;
13147;SDS011;6639;50.956;4.242;2023-03-03T05:58:44;35.67;;;23.07;;
13147;SDS011;6639;50.956;4.242;2023-03-03T06:01:11;33.47;;;21.67;;
13147;SDS011;6639;50.956;4.242;2023-03-03T06:03:38;37.43;;;23.33;;
13147;SDS011;6639;50.956;4.242;2023-03-03T06:06:05;36.33;;;24.10;;
13147;SDS011;6639;50.956;4.242;2023-03-03T06:08:33;36.37;;;23.43;;
13147;SDS011;6639;50.956;4.242;2023-03-03T06:11:02;35.50;;;22.47;;
13147;SDS011;6639;50.956;4.242;2023-03-03T06:13:29;32.87;;;21.63;;
13147;SDS011;6639;50.956;4.242;2023-03-03T06:15:56;32.20;;;21.00;;
13147;SDS011;6639;50.956;4.242;2023-03-03T06:18:23;35.10;;;22.77;;
13147;SDS011;6639;50.956;4.242;2023-03-03T06:20:50;34.27;;;23.27;;
13147;SDS011;6639;50.956;4.242;2023-03-03T06:23:18;36.33;;;22.90;;
13147;SDS011;6639;50.956;4.242;2023-03-03T06:25:45;39.17;;;23.87;;
13147;SDS011;6639;50.956;4.242;2023-03-03T06:28:13;35.13;;;22.53;;
13147;SDS011;6639;50.956;4.242;2023-03-03T06:30:40;32.83;;;21.47;;
13147;SDS011;6639;50.956;4.242;2023-03-03T06:33:07;36.03;;;22.00;;
13147;SDS011;6639;50.956;4.242;2023-03-03T06:35:34;35.00;;;22.17;;
13147;SDS011;6639;50.956;4.242;2023-03-03T06:38:01;35.30;;;23.47;;
13147;SDS011;6639;50.956;4.242;2023-03-03T06:40:28;34.10;;;22.47;;
13147;SDS011;6639;50.956;4.242;2023-03-03T06:42:55;35.93;;;21.40;;
13147;SDS011;6639;50.956;4.242;2023-03-03T06:45:23;34.90;;;21.30;;
13147;SDS011;6639;50.956;4.242;2023-03-03T06:47:50;35.03;;;22.10;;
13147;SDS011;6639;50.956;4.242;2023-03-03T06:50:17;39.40;;;23.33;;
13147;SDS011;6639;50.956;4.242;2023-03-03T06:52:46;38.57;;;24.73;;
13147;SDS011;6639;50.956;4.242;2023-03-03T06:55:15;37.70;;;24.43;;
13147;SDS011;6639;50.956;4.242;2023-03-03T06:57:47;34.17;;;22.50;;
13147;SDS011;6639;50.956;4.242;2023-03-03T07:00:22;35.93;;;22.53;;
13147;SDS011;6639;50.956;4.242;2023-03-03T07:02:55;37.73;;;23.70;;
13147;SDS011;6639;50.956;4.242;2023-03-03T07:05:25;37.30;;;23.43;;
13147;SDS011;6639;50.956;4.242;2023-03-03T07:07:53;36.90;;;22.63;;
13147;SDS011;6639;50.956;4.242;2023-03-03T07:10:22;37.07;;;23.07;;
13147;SDS011;6639;50.956;4.242;2023-03-03T07:12:50;34.57;;;22.67;;
13147;SDS011;6639;50.956;4.242;2023-03-03T07:15:20;30.57;;;20.47;;
13147;SDS011;6639;50.956;4.242;2023-03-03T07:17:51;37.57;;;22.33;;
13147;SDS011;6639;50.956;4.242;2023-03-03T07:20:23;34.37;;;22.87;;
13147;SDS011;6639;50.956;4.242;2023-03-03T07:22:55;35.00;;;21.20;;
13147;SDS011;6639;50.956;4.242;2023-03-03T07:25:25;32.27;;;20.40;;
13147;SDS011;6639;50.956;4.242;2023-03-03T07:27:57;31.80;;;20.83;;
13147;SDS011;6639;50.956;4.242;2023-03-03T07:30:27;32.70;;;20.03;;
13147;SDS011;6639;50.956;4.242;2023-03-03T07:32:56;33.50;;;21.17;;
13147;SDS011;6639;50.956;4.242;2023-03-03T07:35:29;27.00;;;18.67;;
13147;SDS011;6639;50.956;4.242;2023-03-03T07:38:04;26.90;;;18.57;;
13147;SDS011;6639;50.956;4.242;2023-03-03T07:40:49;25.00;;;17.70;;
13147;SDS011;6639;50.956;4.242;2023-03-03T07:43:24;29.20;;;18.47;;
13147;SDS011;6639;50.956;4.242;2023-03-03T07:45:59;26.17;;;17.60;;
13147;SDS011;6639;50.956;4.242;2023-03-03T07:48:32;25.13;;;17.73;;
13147;SDS011;6639;50.956;4.242;2023-03-03T07:51:03;25.27;;;17.60;;
13147;SDS011;6639;50.956;4.242;2023-03-03T07:53:33;25.77;;;17.67;;
13147;SDS011;6639;50.956;4.242;2023-03-03T07:56:02;26.73;;;17.93;;
13147;SDS011;6639;50.956;4.242;2023-03-03T07:58:40;24.77;;;17.37;;
13147;SDS011;6639;50.956;4.242;2023-03-03T08:03:58;29.03;;;19.47;;
13147;SDS011;6639;50.956;4.242;2023-03-03T08:06:36;24.33;;;17.00;;
13147;SDS011;6639;50.956;4.242;2023-03-03T08:12:19;25.00;;;17.57;;
13147;SDS011;6639;50.956;4.242;2023-03-03T08:15:09;24.93;;;16.77;;
13147;SDS011;6639;50.956;4.242;2023-03-03T08:17:43;26.80;;;16.37;;
13147;SDS011;6639;50.956;4.242;2023-03-03T08:23:08;20.00;;;13.37;;
13147;SDS011;6639;50.956;4.242;2023-03-03T08:25:35;22.17;;;14.70;;
13147;SDS011;6639;50.956;4.242;2023-03-03T08:28:03;23.13;;;15.20;;
13147;SDS011;6639;50.956;4.242;2023-03-03T08:30:30;23.63;;;14.50;;
13147;SDS011;6639;50.956;4.242;2023-03-03T08:32:57;23.83;;;16.17;;
13147;SDS011;6639;50.956;4.242;2023-03-03T08:35:25;24.57;;;15.80;;
13147;SDS011;6639;50.956;4.242;2023-03-03T08:37:53;20.30;;;14.67;;
13147;SDS011;6639;50.956;4.242;2023-03-03T08:40:20;23.00;;;16.00;;
13147;SDS011;6639;50.956;4.242;2023-03-03T08:42:47;22.67;;;15.70;;
13147;SDS011;6639;50.956;4.242;2023-03-03T08:45:14;22.20;;;16.47;;
13147;SDS011;6639;50.956;4.242;2023-03-03T08:47:41;22.07;;;14.97;;
13147;SDS011;6639;50.956;4.242;2023-03-03T08:50:09;21.47;;;15.37;;
13147;SDS011;6639;50.956;4.242;2023-03-03T08:52:36;23.40;;;15.50;;
13147;SDS011;6639;50.956;4.242;2023-03-03T08:55:04;25.23;;;15.63;;
13147;SDS011;6639;50.956;4.242;2023-03-03T08:57:32;23.20;;;15.50;;
13147;SDS011;6639;50.956;4.242;2023-03-03T08:59:59;25.70;;;15.73;;
13147;SDS011;6639;50.956;4.242;2023-03-03T09:02:26;22.00;;;14.37;;
13147;SDS011;6639;50.956;4.242;2023-03-03T09:04:53;22.67;;;14.97;;
13147;SDS011;6639;50.956;4.242;2023-03-03T09:07:20;21.30;;;14.63;;
13147;SDS011;6639;50.956;4.242;2023-03-03T09:09:47;21.93;;;14.20;;
13147;SDS011;6639;50.956;4.242;2023-03-03T09:12:16;23.47;;;15.40;;
13147;SDS011;6639;50.956;4.242;2023-03-03T09:14:44;23.80;;;15.40;;
13147;SDS011;6639;50.956;4.242;2023-03-03T09:17:18;24.17;;;16.83;;
13147;SDS011;6639;50.956;4.242;2023-03-03T09:19:50;23.13;;;15.47;;
13147;SDS011;6639;50.956;4.242;2023-03-03T09:22:18;25.30;;;15.93;;
13147;SDS011;6639;50.956;4.242;2023-03-03T09:24:46;22.97;;;15.33;;
13147;SDS011;6639;50.956;4.242;2023-03-03T09:27:17;23.57;;;15.97;;
13147;SDS011;6639;50.956;4.242;2023-03-03T09:29:46;23.57;;;14.67;;
13147;SDS011;6639;50.956;4.242;2023-03-03T09:32:20;21.83;;;15.87;;
13147;SDS011;6639;50.956;4.242;2023-03-03T09:34:54;21.65;;;15.15;;
13147;SDS011;6639;50.956;4.242;2023-03-03T09:37:21;22.40;;;15.33;;
13147;SDS011;6639;50.956;4.242;2023-03-03T09:39:50;23.97;;;16.80;;
13147;SDS011;6639;50.956;4.242;2023-03-03T09:42:35;23.57;;;15.67;;
13147;SDS011;6639;50.956;4.242;2023-03-03T09:45:25;21.90;;;15.00;;
13147;SDS011;6639;50.956;4.242;2023-03-03T09:53:51;18.13;;;13.18;;
13147;SDS011;6639;50.956;4.242;2023-03-03T09:56:28;18.63;;;12.23;;
13147;SDS011;6639;50.956;4.242;2023-03-03T09:59:06;17.83;;;13.23;;
13147;SDS011;6639;50.956;4.242;2023-03-03T10:01:48;20.93;;;14.67;;
13147;SDS011;6639;50.956;4.242;2023-03-03T10:04:30;23.20;;;14.73;;
13147;SDS011;6639;50.956;4.242;2023-03-03T10:07:21;21.77;;;14.67;;
13147;SDS011;6639;50.956;4.242;2023-03-03T10:12:47;20.07;;;12.83;;
13147;SDS011;6639;50.956;4.242;2023-03-03T10:15:28;19.40;;;13.20;;
13147;SDS011;6639;50.956;4.242;2023-03-03T10:18:06;19.63;;;14.07;;
13147;SDS011;6639;50.956;4.242;2023-03-03T10:20:49;21.10;;;14.83;;
13147;SDS011;6639;50.956;4.242;2023-03-03T10:23:33;18.00;;;13.17;;
13147;SDS011;6639;50.956;4.242;2023-03-03T10:26:19;22.40;;;13.57;;
13147;SDS011;6639;50.956;4.242;2023-03-03T10:28:55;18.80;;;13.47;;
13147;SDS011;6639;50.956;4.242;2023-03-03T10:31:44;18.00;;;12.30;;
13147;SDS011;6639;50.956;4.242;2023-03-03T10:34:28;16.70;;;12.57;;
13147;SDS011;6639;50.956;4.242;2023-03-03T10:37:12;18.83;;;12.50;;
13147;SDS011;6639;50.956;4.242;2023-03-03T10:39:48;19.20;;;13.10;;
13147;SDS011;6639;50.956;4.242;2023-03-03T10:42:30;16.33;;;11.97;;
13147;SDS011;6639;50.956;4.242;2023-03-03T10:45:30;18.95;;;13.00;;
13147;SDS011;6639;50.956;4.242;2023-03-03T10:48:14;20.02;;;13.02;;
13147;SDS011;6639;50.956;4.242;2023-03-03T10:50:52;20.43;;;13.80;;
13147;SDS011;6639;50.956;4.242;2023-03-03T10:53:26;20.05;;;14.25;;
13147;SDS011;6639;50.956;4.242;2023-03-03T10:56:09;20.15;;;14.20;;
13147;SDS011;6639;50.956;4.242;2023-03-03T10:58:50;20.27;;;14.82;;
13147;SDS011;6639;50.956;4.242;2023-03-03T11:01:29;18.67;;;13.23;;
13147;SDS011;6639;50.956;4.242;2023-03-03T11:04:10;24.45;;;14.90;;
13147;SDS011;6639;50.956;4.242;2023-03-03T11:07:05;22.83;;;15.67;;
13147;SDS011;6639;50.956;4.242;2023-03-03T11:09:39;22.90;;;16.00;;
13147;SDS011;6639;50.956;4.242;2023-03-03T11:12:22;22.92;;;16.00;;
13147;SDS011;6639;50.956;4.242;2023-03-03T11:14:57;19.38;;;15.23;;
13147;SDS011;6639;50.956;4.242;2023-03-03T11:17:47;22.45;;;15.65;;
13147;SDS011;6639;50.956;4.242;2023-03-03T11:20:27;20.60;;;14.35;;
13147;SDS011;6639;50.956;4.242;2023-03-03T11:23:02;20.13;;;14.55;;
13147;SDS011;6639;50.956;4.242;2023-03-03T11:25:45;22.88;;;15.73;;
13147;SDS011;6639;50.956;4.242;2023-03-03T11:28:40;19.98;;;14.93;;
13147;SDS011;6639;50.956;4.242;2023-03-03T11:31:16;18.55;;;14.20;;
13147;SDS011;6639;50.956;4.242;2023-03-03T11:33:51;18.40;;;14.20;;
13147;SDS011;6639;50.956;4.242;2023-03-03T11:36:26;20.50;;;14.68;;
13147;SDS011;6639;50.956;4.242;2023-03-03T11:38:56;20.33;;;14.98;;
13147;SDS011;6639;50.956;4.242;2023-03-03T11:41:31;18.58;;;13.55;;
13147;SDS011;6639;50.956;4.242;2023-03-03T11:44:07;19.27;;;14.30;;
13147;SDS011;6639;50.956;4.242;2023-03-03T11:46:43;19.20;;;12.95;;
13147;SDS011;6639;50.956;4.242;2023-03-03T11:49:14;21.67;;;14.93;;
13147;SDS011;6639;50.956;4.242;2023-03-03T11:51:49;18.83;;;14.15;;
13147;SDS011;6639;50.956;4.242;2023-03-03T11:54:26;21.40;;;16.52;;
13147;SDS011;6639;50.956;4.242;2023-03-03T11:56:58;24.33;;;19.02;;
13147;SDS011;6639;50.956;4.242;2023-03-03T12:02:44;23.80;;;17.63;;
13147;SDS011;6639;50.956;4.242;2023-03-03T12:05:26;23.85;;;18.13;;
13147;SDS011;6639;50.956;4.242;2023-03-03T12:08:08;22.75;;;17.90;;
13147;SDS011;6639;50.956;4.242;2023-03-03T12:10:49;40.10;;;18.73;;
13147;SDS011;6639;50.956;4.242;2023-03-03T12:13:32;25.83;;;16.90;;
13147;SDS011;6639;50.956;4.242;2023-03-03T12:16:09;23.15;;;16.63;;
13147;SDS011;6639;50.956;4.242;2023-03-03T12:18:47;21.80;;;17.58;;
13147;SDS011;6639;50.956;4.242;2023-03-03T12:21:26;18.63;;;15.18;;
13147;SDS011;6639;50.956;4.242;2023-03-03T12:24:17;19.08;;;15.43;;
13147;SDS011;6639;50.956;4.242;2023-03-03T12:27:00;18.48;;;14.77;;
13147;SDS011;6639;50.956;4.242;2023-03-03T12:29:38;20.67;;;15.13;;
13147;SDS011;6639;50.956;4.242;2023-03-03T12:32:18;18.40;;;15.80;;
13147;SDS011;6639;50.956;4.242;2023-03-03T12:34:56;19.00;;;14.98;;
13147;SDS011;6639;50.956;4.242;2023-03-03T12:37:38;20.02;;;15.60;;
13147;SDS011;6639;50.956;4.242;2023-03-03T12:40:15;20.60;;;15.88;;
13147;SDS011;6639;50.956;4.242;2023-03-03T12:42:48;22.48;;;16.10;;
13147;SDS011;6639;50.956;4.242;2023-03-03T12:45:28;17.33;;;13.95;;
13147;SDS011;6639;50.956;4.242;2023-03-03T12:48:05;20.45;;;14.77;;
13147;SDS011;6639;50.956;4.242;2023-03-03T12:50:37;17.23;;;14.00;;
13147;SDS011;6639;50.956;4.242;2023-03-03T12:53:17;16.42;;;13.60;;
13147;SDS011;6639;50.956;4.242;2023-03-03T12:55:55;18.27;;;14.82;;
13147;SDS011;6639;50.956;4.242;2023-03-03T12:58:33;17.58;;;15.25;;
13147;SDS011;6639;50.956;4.242;2023-03-03T13:01:15;18.90;;;15.32;;
13147;SDS011;6639;50.956;4.242;2023-03-03T13:03:55;17.40;;;15.20;;
13147;SDS011;6639;50.956;4.242;2023-03-03T13:06:29;19.52;;;16.65;;
13147;SDS011;6639;50.956;4.242;2023-03-03T13:09:03;17.05;;;15.23;;
13147;SDS011;6639;50.956;4.242;2023-03-03T13:11:44;14.20;;;12.73;;
13147;SDS011;6639;50.956;4.242;2023-03-03T13:14:31;15.57;;;13.23;;
13147;SDS011;6639;50.956;4.242;2023-03-03T13:17:06;16.95;;;14.27;;
13147;SDS011;6639;50.956;4.242;2023-03-03T13:19:44;15.73;;;13.48;;
13147;SDS011;6639;50.956;4.242;2023-03-03T13:22:16;17.20;;;14.23;;
13147;SDS011;6639;50.956;4.242;2023-03-03T13:24:53;17.25;;;13.77;;
13147;SDS011;6639;50.956;4.242;2023-03-03T13:27:29;13.38;;;11.98;;
13147;SDS011;6639;50.956;4.242;2023-03-03T13:30:01;14.57;;;12.75;;
13147;SDS011;6639;50.956;4.242;2023-03-03T13:32:34;14.73;;;12.40;;
13147;SDS011;6639;50.956;4.242;2023-03-03T13:35:13;13.80;;;12.35;;
13147;SDS011;6639;50.956;4.242;2023-03-03T13:37:57;16.58;;;12.20;;
13147;SDS011;6639;50.956;4.242;2023-03-03T13:40:25;16.58;;;12.20;;
13147;SDS011;6639;50.956;4.242;2023-03-03T13:42:58;15.32;;;12.45;;
13147;SDS011;6639;50.956;4.242;2023-03-03T13:45:29;15.07;;;12.45;;
13147;SDS011;6639;50.956;4.242;2023-03-03T13:48:04;15.05;;;11.85;;
13147;SDS011;6639;50.956;4.242;2023-03-03T13:50:39;12.60;;;10.57;;
13147;SDS011;6639;50.956;4.242;2023-03-03T13:53:17;14.35;;;10.85;;
13147;SDS011;6639;50.956;4.242;2023-03-03T13:55:59;12.32;;;11.02;;
13147;SDS011;6639;50.956;4.242;2023-03-03T13:58:35;12.48;;;10.73;;
13147;SDS011;6639;50.956;4.242;2023-03-03T14:01:11;11.13;;;10.02;;
13147;SDS011;6639;50.956;4.242;2023-03-03T14:03:51;11.20;;;9.93;;
13147;SDS011;6639;50.956;4.242;2023-03-03T14:06:26;12.50;;;10.02;;
13147;SDS011;6639;50.956;4.242;2023-03-03T14:08:58;12.13;;;10.30;;
13147;SDS011;6639;50.956;4.242;2023-03-03T14:11:42;11.98;;;9.45;;
13147;SDS011;6639;50.956;4.242;2023-03-03T14:14:20;10.60;;;9.50;;
13147;SDS011;6639;50.956;4.242;2023-03-03T14:16:59;11.55;;;8.93;;
13147;SDS011;6639;50.956;4.242;2023-03-03T14:19:30;13.30;;;9.52;;
13147;SDS011;6639;50.956;4.242;2023-03-03T14:22:05;9.07;;;8.15;;
13147;SDS011;6639;50.956;4.242;2023-03-03T14:24:54;11.27;;;7.60;;
13147;SDS011;6639;50.956;4.242;2023-03-03T14:27:26;10.82;;;8.75;;
13147;SDS011;6639;50.956;4.242;2023-03-03T14:30:10;8.65;;;7.75;;
13147;SDS011;6639;50.956;4.242;2023-03-03T14:32:58;9.68;;;8.13;;
13147;SDS011;6639;50.956;4.242;2023-03-03T14:35:28;8.75;;;7.85;;
13147;SDS011;6639;50.956;4.242;2023-03-03T14:38:00;9.48;;;7.57;;
13147;SDS011;6639;50.956;4.242;2023-03-03T14:40:31;9.15;;;8.20;;
13147;SDS011;6639;50.956;4.242;2023-03-03T14:43:00;9.85;;;7.57;;
13147;SDS011;6639;50.956;4.242;2023-03-03T14:45:32;9.02;;;7.28;;
13147;SDS011;6639;50.956;4.242;2023-03-03T14:48:05;8.57;;;6.75;;
13147;SDS011;6639;50.956;4.242;2023-03-03T14:50:37;7.25;;;6.50;;
13147;SDS011;6639;50.956;4.242;2023-03-03T14:53:07;7.25;;;6.47;;
13147;SDS011;6639;50.956;4.242;2023-03-03T14:55:39;8.40;;;6.65;;
13147;SDS011;6639;50.956;4.242;2023-03-03T14:58:22;7.93;;;6.32;;
13147;SDS011;6639;50.956;4.242;2023-03-03T15:01:11;8.82;;;7.07;;
13147;SDS011;6639;50.956;4.242;2023-03-03T15:03:47;6.75;;;6.05;;
13147;SDS011;6639;50.956;4.242;2023-03-03T15:06:33;7.78;;;6.75;;
13147;SDS011;6639;50.956;4.242;2023-03-03T15:11:57;8.25;;;5.70;;
13147;SDS011;6639;50.956;4.242;2023-03-03T15:14:28;7.47;;;6.05;;
13147;SDS011;6639;50.956;4.242;2023-03-03T15:17:10;11.35;;;7.30;;
13147;SDS011;6639;50.956;4.242;2023-03-03T15:19:47;9.45;;;6.32;;
13147;SDS011;6639;50.956;4.242;2023-03-03T15:22:23;6.95;;;6.13;;
13147;SDS011;6639;50.956;4.242;2023-03-03T15:25:08;7.45;;;6.53;;
13147;SDS011;6639;50.956;4.242;2023-03-03T15:27:41;8.80;;;6.97;;
13147;SDS011;6639;50.956;4.242;2023-03-03T15:30:13;9.75;;;7.93;;
13147;SDS011;6639;50.956;4.242;2023-03-03T15:32:52;7.60;;;6.28;;